Time;durP1;ratioP1;P1;durP2;ratioP2;P2;SDS_P1;SDS_P2;PMS_P1;PMS_P2;Temp;Humidity;BMP_temperature;BMP_pressure;BME280_temperature;BME280_humidity;BME280_pressure;Samples;Min_cycle;Max_cycle;Signal;HPM_P1;HPM_P2
2024/02/08 00:01:51;;;;;;;34.97;18.47;;;5.70;99.90;;;;;;4213038;28;20770;-62
2024/02/08 00:03:52;;;;;;;37.87;19.17;;;5.60;99.90;;;;;;4214154;28;20448;-61
2024/02/08 00:05:53;;;;;;;41.83;19.13;;;5.40;99.90;;;;;;4213019;28;20044;-62
2024/02/08 00:07:55;;;;;;;30.23;15.87;;;5.20;99.90;;;;;;4214013;28;20464;-62
2024/02/08 00:09:56;;;;;;;35.27;17.30;;;5.10;99.90;;;;;;4212706;28;20548;-61
2024/02/08 00:11:58;;;;;;;36.03;16.67;;;5.10;99.90;;;;;;4213570;28;20422;-61
2024/02/08 00:13:59;;;;;;;55.03;19.73;;;5.00;99.90;;;;;;4212909;28;20036;-62
2024/02/08 00:16:01;;;;;;;43.63;19.23;;;5.10;99.90;;;;;;4213411;28;20040;-61
2024/02/08 00:18:03;;;;;;;57.37;20.50;;;5.10;99.90;;;;;;4212968;28;20062;-61
2024/02/08 00:20:06;;;;;;;62.87;18.93;;;5.10;99.90;;;;;;4212785;28;20543;-60
2024/02/08 00:22:08;;;;;;;41.43;17.00;;;5.10;99.90;;;;;;4213094;28;20052;-61
2024/02/08 00:24:09;;;;;;;43.20;21.97;;;5.10;99.90;;;;;;4212776;28;20748;-60
2024/02/08 00:26:10;;;;;;;43.97;18.07;;;5.00;99.90;;;;;;4213388;28;20113;-61
2024/02/08 00:28:13;;;;;;;35.60;17.47;;;5.00;99.90;;;;;;4212422;28;20035;-61
2024/02/08 00:30:17;;;;;;;21.27;11.53;;;4.90;99.90;;;;;;4213615;28;20101;-60
2024/02/08 00:32:19;;;;;;;41.83;17.23;;;5.10;99.90;;;;;;4211858;28;20044;-61
2024/02/08 00:34:20;;;;;;;32.77;16.13;;;5.10;99.90;;;;;;4213570;28;20081;-62
2024/02/08 00:36:21;;;;;;;30.43;15.53;;;5.10;99.90;;;;;;4212522;28;20136;-61
2024/02/08 00:38:22;;;;;;;36.37;15.83;;;5.10;99.90;;;;;;4213556;28;20024;-61
2024/02/08 00:40:24;;;;;;;37.00;15.70;;;5.10;99.90;;;;;;4212524;28;20109;-62
2024/02/08 00:42:25;;;;;;;34.63;16.80;;;5.10;99.90;;;;;;4213314;28;20031;-62
2024/02/08 00:44:27;;;;;;;30.57;16.00;;;5.10;99.90;;;;;;4212515;28;20065;-59
2024/02/08 00:46:29;;;;;;;31.77;15.47;;;5.10;99.90;;;;;;4213296;28;20051;-62
2024/02/08 00:48:30;;;;;;;32.77;15.13;;;5.10;99.90;;;;;;4211941;28;20024;-62
2024/02/08 00:50:31;;;;;;;31.23;15.13;;;5.10;99.90;;;;;;4212841;28;20443;-62
2024/02/08 00:52:33;;;;;;;31.57;16.47;;;5.10;99.90;;;;;;4212550;28;20701;-62
2024/02/08 00:54:35;;;;;;;33.03;16.20;;;5.00;99.90;;;;;;4212201;28;20430;-62
2024/02/08 00:56:36;;;;;;;33.77;16.77;;;5.00;99.90;;;;;;4213122;28;20461;-62
2024/02/08 00:58:39;;;;;;;31.20;16.27;;;5.00;99.90;;;;;;4211796;28;20065;-62
2024/02/08 01:00:40;;;;;;;32.83;14.90;;;5.00;99.90;;;;;;4213241;28;20467;-61
2024/02/08 01:02:43;;;;;;;31.10;15.93;;;4.90;99.90;;;;;;4211641;28;20085;-62
2024/02/08 01:04:48;;;;;;;27.43;14.07;;;4.90;99.90;;;;;;4213274;28;20040;-61
2024/02/08 01:06:49;;;;;;;30.93;16.83;;;5.00;99.90;;;;;;4212464;28;20888;-62
2024/02/08 01:08:54;;;;;;;33.70;17.10;;;4.90;99.90;;;;;;4213249;28;20396;-61
2024/02/08 01:10:55;;;;;;;30.70;16.77;;;5.00;99.90;;;;;;4211753;28;20446;-61
2024/02/08 01:12:56;;;;;;;32.37;17.00;;;5.00;99.90;;;;;;4213067;28;20044;-62
2024/02/08 01:14:57;;;;;;;34.37;17.37;;;5.00;99.90;;;;;;4211635;28;20032;-61
2024/02/08 01:16:59;;;;;;;35.10;17.60;;;5.00;99.90;;;;;;4212636;28;20089;-61
2024/02/08 01:19:00;;;;;;;35.33;17.10;;;5.00;99.90;;;;;;4211556;28;20085;-61
2024/02/08 01:21:01;;;;;;;31.23;17.37;;;5.00;99.90;;;;;;4212571;28;20478;-62
2024/02/08 01:23:04;;;;;;;35.30;17.87;;;5.10;99.90;;;;;;4211409;28;20043;-62
2024/02/08 01:25:05;;;;;;;37.20;18.53;;;5.00;99.90;;;;;;4212186;28;20024;-62
2024/02/08 01:27:06;;;;;;;46.07;18.93;;;5.00;99.90;;;;;;4211795;28;20044;-62
2024/02/08 01:29:08;;;;;;;36.07;17.63;;;5.00;99.90;;;;;;4211790;28;20092;-61
2024/02/08 01:31:09;;;;;;;34.33;18.40;;;5.00;99.90;;;;;;4212210;28;20105;-62
2024/02/08 01:33:11;;;;;;;37.10;18.00;;;5.00;99.90;;;;;;4210630;28;20400;-63
2024/02/08 01:35:21;;;;;;;40.83;18.50;;;5.00;99.90;;;;;;4212629;28;20069;-63
2024/02/08 01:37:22;;;;;;;35.13;17.55;;;5.00;99.90;;;;;;4211595;28;20028;-65
2024/02/08 01:39:23;;;;;;;40.13;19.10;;;5.00;99.90;;;;;;4212528;28;20032;-61
2024/02/08 01:41:25;;;;;;;41.70;20.60;;;4.90;99.90;;;;;;4210841;28;20476;-62
2024/02/08 01:43:31;;;;;;;40.03;20.00;;;4.80;99.90;;;;;;4212105;28;20530;-62
2024/02/08 01:45:37;;;;;;;42.87;19.93;;;4.70;99.90;;;;;;4211252;28;20035;-61
2024/02/08 01:47:39;;;;;;;36.27;18.53;;;4.60;99.90;;;;;;4212132;28;20043;-62
2024/02/08 01:49:41;;;;;;;37.77;18.70;;;4.50;99.90;;;;;;4211929;28;20109;-63
2024/02/08 01:51:44;;;;;;;42.00;19.30;;;4.50;99.90;;;;;;4212531;28;20322;-62
2024/02/08 01:53:45;;;;;;;43.93;20.53;;;4.40;99.90;;;;;;4210720;28;20318;-62
2024/02/08 01:55:51;;;;;;;33.27;17.77;;;4.40;99.90;;;;;;4212253;28;20256;-62
2024/02/08 01:57:52;;;;;;;42.43;18.60;;;4.40;99.90;;;;;;4210453;28;20610;-62
2024/02/08 01:59:54;;;;;;;42.97;19.33;;;4.50;99.90;;;;;;4212212;28;20277;-58
2024/02/08 02:01:57;;;;;;;42.07;19.67;;;4.50;99.90;;;;;;4210920;28;20733;-61
2024/02/08 02:03:59;;;;;;;38.90;17.80;;;4.50;99.90;;;;;;4211958;28;20334;-62
2024/02/08 02:06:00;;;;;;;39.97;18.60;;;4.50;99.90;;;;;;4211164;28;20264;-62
2024/02/08 02:08:01;;;;;;;38.57;18.37;;;4.40;99.90;;;;;;4211506;28;20261;-62
2024/02/08 02:10:03;;;;;;;32.43;17.30;;;4.50;99.90;;;;;;4211045;28;20334;-62
2024/02/08 02:12:10;;;;;;;47.40;22.27;;;4.50;99.90;;;;;;4210897;28;20261;-62
2024/02/08 02:14:15;;;;;;;48.57;22.17;;;4.50;99.90;;;;;;4211971;28;20756;-62
2024/02/08 02:16:16;;;;;;;44.93;21.53;;;4.50;99.90;;;;;;4211120;28;20901;-62
2024/02/08 02:18:18;;;;;;;42.13;20.13;;;4.40;99.90;;;;;;4211852;28;20411;-62
2024/02/08 02:20:24;;;;;;;44.80;20.70;;;4.30;99.90;;;;;;4210698;28;20268;-62
2024/02/08 02:22:28;;;;;;;41.87;19.03;;;4.40;99.90;;;;;;4211750;28;20679;-61
2024/02/08 02:24:29;;;;;;;47.77;16.53;;;4.40;99.90;;;;;;4210598;28;20785;-61
2024/02/08 02:26:32;;;;;;;16.30;8.50;;;4.50;99.90;;;;;;4211710;28;20044;-62
2024/02/08 02:28:36;;;;;;;13.73;8.07;;;4.60;99.90;;;;;;4210748;28;21048;-62
2024/02/08 02:30:38;;;;;;;37.83;17.07;;;4.90;99.90;;;;;;4211727;28;20031;-62
2024/02/08 02:32:41;;;;;;;47.60;20.70;;;5.10;99.90;;;;;;4210268;28;20268;-62
2024/02/08 02:34:45;;;;;;;48.03;21.80;;;5.10;99.90;;;;;;4210926;28;20031;-62
2024/02/08 02:36:48;;;;;;;41.53;20.30;;;4.90;99.90;;;;;;4210780;28;20728;-62
2024/02/08 02:38:51;;;;;;;48.77;22.33;;;4.80;99.90;;;;;;4211638;28;20036;-62
2024/02/08 02:40:52;;;;;;;47.43;20.40;;;4.70;99.90;;;;;;4210417;28;20442;-60
2024/02/08 02:42:57;;;;;;;39.43;19.10;;;4.60;99.90;;;;;;4211677;28;20268;-62
2024/02/08 02:45:00;;;;;;;38.97;19.80;;;4.50;99.90;;;;;;4210553;28;20060;-62
2024/02/08 02:47:03;;;;;;;47.23;20.47;;;4.50;99.90;;;;;;4210971;28;20036;-61
2024/02/08 02:49:04;;;;;;;39.47;19.67;;;4.40;99.90;;;;;;4210203;28;20464;-62
2024/02/08 02:51:07;;;;;;;42.20;21.03;;;4.30;99.90;;;;;;4210722;28;20439;-62
2024/02/08 02:53:08;;;;;;;39.50;20.60;;;4.20;99.90;;;;;;4211018;28;20062;-61
2024/02/08 02:55:09;;;;;;;47.73;20.47;;;4.10;99.90;;;;;;4210258;28;20036;-62
2024/02/08 02:57:11;;;;;;;34.77;17.70;;;4.10;99.90;;;;;;4211325;28;20249;-62
2024/02/08 02:59:16;;;;;;;40.20;18.20;;;4.20;99.90;;;;;;4209556;28;20276;-61
2024/02/08 03:01:19;;;;;;;39.10;19.20;;;4.20;99.90;;;;;;4211569;28;20334;-61
2024/02/08 03:03:20;;;;;;;37.93;19.80;;;4.10;99.90;;;;;;4209979;28;20256;-61
2024/02/08 03:05:22;;;;;;;21.57;12.30;;;4.00;99.90;;;;;;4211646;28;20253;-61
2024/02/08 03:07:28;;;;;;;45.63;19.83;;;4.00;99.90;;;;;;4210337;28;20679;-61
2024/02/08 03:09:31;;;;;;;41.67;19.50;;;4.10;99.90;;;;;;4212147;28;20333;-62
2024/02/08 03:11:32;;;;;;;36.50;17.77;;;4.20;99.90;;;;;;4213694;28;21091;-60
2024/02/08 03:13:34;;;;;;;37.33;17.70;;;4.10;99.90;;;;;;4214626;28;20813;-60
2024/02/08 03:15:39;;;;;;;36.97;18.80;;;4.10;99.90;;;;;;4213346;28;20346;-61
2024/02/08 03:17:40;;;;;;;45.50;21.67;;;4.20;99.90;;;;;;4214770;28;20675;-61
2024/02/08 03:19:41;;;;;;;33.70;17.73;;;4.10;99.90;;;;;;4213468;28;20678;-61
2024/02/08 03:21:45;;;;;;;32.13;16.90;;;4.20;99.90;;;;;;4214345;28;20721;-61
2024/02/08 03:23:50;;;;;;;39.53;19.23;;;4.20;99.90;;;;;;4213596;28;20721;-61
2024/02/08 03:25:51;;;;;;;34.13;19.13;;;4.30;99.90;;;;;;4213965;28;20667;-62
2024/02/08 03:27:53;;;;;;;40.60;20.10;;;4.20;99.90;;;;;;4213801;28;20350;-61
2024/02/08 03:29:54;;;;;;;33.77;17.37;;;4.10;99.90;;;;;;4213750;28;20798;-62
2024/02/08 03:31:55;;;;;;;33.27;17.00;;;4.10;99.90;;;;;;4213780;28;20253;-60
2024/02/08 03:33:56;;;;;;;40.37;16.70;;;4.20;99.90;;;;;;4212849;28;20822;-62
2024/02/08 03:35:59;;;;;;;31.17;15.27;;;4.20;99.90;;;;;;4214552;28;20277;-62
2024/02/08 03:38:01;;;;;;;32.97;16.27;;;4.20;99.90;;;;;;4213224;28;20285;-62
2024/02/08 03:40:03;;;;;;;38.37;17.13;;;4.10;99.90;;;;;;4214195;28;20276;-62
2024/02/08 03:42:05;;;;;;;30.87;15.67;;;4.10;99.90;;;;;;4213266;28;20288;-61
2024/02/08 03:44:06;;;;;;;32.03;16.97;;;4.20;99.90;;;;;;4214183;28;20284;-61
2024/02/08 03:46:07;;;;;;;38.80;17.80;;;4.20;99.90;;;;;;4213105;28;20325;-61
2024/02/08 03:48:10;;;;;;;26.47;14.50;;;4.10;99.90;;;;;;4213538;28;20903;-63
2024/02/08 03:50:12;;;;;;;25.27;14.37;;;4.00;99.90;;;;;;4212105;28;20298;-60
2024/02/08 03:52:14;;;;;;;28.13;14.70;;;3.90;99.90;;;;;;4213761;28;20269;-61
2024/02/08 03:54:19;;;;;;;37.93;15.77;;;3.80;99.90;;;;;;4213285;28;21328;-62
2024/02/08 03:56:26;;;;;;;31.97;15.40;;;3.80;99.90;;;;;;4213209;28;20643;-62
2024/02/08 03:58:27;;;;;;;26.47;14.97;;;3.90;99.90;;;;;;4212353;28;20294;-62
2024/02/08 04:00:28;;;;;;;30.97;15.67;;;4.10;99.90;;;;;;4213643;28;20791;-62
2024/02/08 04:02:34;;;;;;;27.83;15.43;;;4.20;99.90;;;;;;4212276;28;20806;-62
2024/02/08 04:05:26;;;;;;;33.57;15.30;;;4.30;99.90;;;;;;4213007;28;20830;-61
2024/02/08 04:07:19;;;;;;;28.23;14.23;;;4.30;99.90;;;;;;4205586;28;20288;-61
2024/02/08 04:09:33;;;;;;;29.50;16.90;;;4.30;99.90;;;;;;4213449;28;20272;-61
2024/02/08 04:53:38;;;;;;;29.33;14.53;;;4.20;99.90;;;;;;4207813;28;20337;-62
2024/02/08 04:55:39;;;;;;;22.60;11.97;;;4.10;99.90;;;;;;4212142;28;20269;-62
2024/02/08 04:57:41;;;;;;;25.33;14.40;;;4.00;99.90;;;;;;4212624;28;20277;-62
2024/02/08 04:59:44;;;;;;;25.20;12.40;;;3.90;99.90;;;;;;4211006;28;20265;-62
2024/02/08 05:01:45;;;;;;;20.00;11.70;;;3.80;99.90;;;;;;4212301;28;20322;-61
2024/02/08 05:03:47;;;;;;;18.57;10.60;;;3.80;99.90;;;;;;4210010;28;20264;-62
2024/02/08 05:05:48;;;;;;;18.97;10.97;;;3.70;99.90;;;;;;4212963;28;20289;-62
2024/02/08 05:07:49;;;;;;;20.67;11.43;;;3.70;99.90;;;;;;4211957;28;20756;-62
2024/02/08 05:09:51;;;;;;;25.53;13.50;;;3.70;99.90;;;;;;4212776;28;20800;-61
2024/02/08 05:11:52;;;;;;;23.27;12.93;;;3.70;99.90;;;;;;4211009;28;20273;-63
2024/02/08 05:13:55;;;;;;;19.43;11.10;;;3.60;99.90;;;;;;4212289;28;20261;-63
2024/02/08 05:15:56;;;;;;;27.20;13.83;;;3.60;99.90;;;;;;4211854;28;20257;-63
2024/02/08 05:17:58;;;;;;;23.47;13.53;;;3.70;99.90;;;;;;4211515;28;20318;-61
2024/02/08 05:19:59;;;;;;;27.70;12.90;;;3.70;99.90;;;;;;4212219;28;20273;-61
2024/02/08 05:22:02;;;;;;;17.17;9.23;;;3.80;99.90;;;;;;4211130;28;20690;-62
2024/02/08 05:24:03;;;;;;;19.53;9.30;;;3.80;99.90;;;;;;4211823;28;20284;-61
2024/02/08 05:26:11;;;;;;;22.30;12.77;;;3.90;99.90;;;;;;4211681;28;20285;-62
2024/02/08 05:28:12;;;;;;;27.77;13.13;;;4.00;99.90;;;;;;4212067;28;20656;-62
2024/02/08 05:30:14;;;;;;;21.10;11.10;;;4.10;99.90;;;;;;4210390;28;20268;-62
2024/02/08 05:32:15;;;;;;;16.83;10.43;;;4.10;99.90;;;;;;4210881;28;20333;-62
2024/02/08 05:34:17;;;;;;;20.17;10.87;;;4.20;99.90;;;;;;4210726;28;20318;-62
2024/02/08 05:36:18;;;;;;;18.20;10.40;;;4.30;99.90;;;;;;4212484;28;20272;-62
2024/02/08 05:38:21;;;;;;;17.23;10.13;;;4.50;99.90;;;;;;4211106;28;20257;-61
2024/02/08 05:40:23;;;;;;;18.80;11.07;;;4.60;99.90;;;;;;4210425;28;20261;-61
2024/02/08 05:42:24;;;;;;;21.33;10.70;;;4.70;99.90;;;;;;4210894;28;20285;-63
2024/02/08 05:44:29;;;;;;;9.50;5.30;;;4.80;99.90;;;;;;4211818;28;20277;-63
2024/02/08 05:46:37;;;;;;;9.03;5.37;;;4.90;99.90;;;;;;4210679;28;20280;-62
2024/02/08 05:48:39;;;;;;;26.83;12.07;;;5.10;99.90;;;;;;4211196;28;20304;-62
2024/02/08 05:50:44;;;;;;;18.17;10.00;;;5.20;99.90;;;;;;4210998;28;20265;-62
2024/02/08 05:52:45;;;;;;;18.90;9.60;;;5.30;99.90;;;;;;4211319;28;20361;-62
2024/02/08 05:54:52;;;;;;;20.27;11.03;;;5.40;99.90;;;;;;4199386;28;20256;-60
2024/02/08 05:56:57;;;;;;;15.37;8.87;;;5.40;99.90;;;;;;4198724;28;20272;-63
2024/02/08 05:59:01;;;;;;;13.90;8.97;;;5.40;99.90;;;;;;4211362;28;20085;-60
2024/02/08 06:01:05;;;;;;;19.67;9.43;;;5.50;99.90;;;;;;4211714;28;20273;-60
2024/02/08 06:03:06;;;;;;;17.90;9.90;;;5.60;99.90;;;;;;4211273;28;20062;-61
2024/02/08 06:05:16;;;;;;;20.10;9.73;;;5.60;99.90;;;;;;4211262;28;20020;-60
2024/02/08 06:07:18;;;;;;;15.67;8.97;;;5.60;99.90;;;;;;4211723;28;20086;-60
2024/02/08 06:11:39;;;;;;;19.35;11.15;;;5.60;99.90;;;;;;4211518;28;20540;-61
2024/02/08 06:13:41;;;;;;;18.57;11.27;;;5.60;99.90;;;;;;4210863;28;20032;-59
2024/02/08 06:15:46;;;;;;;16.10;8.23;;;5.60;99.90;;;;;;4210557;28;20496;-60
2024/02/08 06:17:57;;;;;;;20.43;12.63;;;5.60;99.90;;;;;;4211035;28;20449;-61
2024/02/08 06:20:08;;;;;;;27.70;14.30;;;5.60;99.90;;;;;;4211613;28;20471;-60
2024/02/08 06:22:22;;;;;;;28.70;14.53;;;5.60;99.90;;;;;;4203239;28;20097;-62
2024/02/08 06:26:28;;;;;;;24.27;14.57;;;5.80;99.90;;;;;;4202458;28;20123;-61
2024/02/08 06:28:33;;;;;;;20.73;11.93;;;5.90;99.90;;;;;;4197168;28;20063;-60
2024/02/08 06:30:36;;;;;;;42.50;27.97;;;6.00;99.90;;;;;;4198875;28;20077;-56
2024/02/08 06:32:44;;;;;;;27.53;18.97;;;6.10;99.90;;;;;;4195576;28;20466;-60
2024/02/08 06:34:55;;;;;;;15.87;10.27;;;6.10;99.90;;;;;;4200788;28;20048;-60
2024/02/08 06:37:15;;;;;;;26.10;18.00;;;6.10;99.90;;;;;;4204948;28;20077;-61
2024/02/08 06:39:29;;;;;;;34.08;18.83;;;6.10;99.90;;;;;;4201572;28;20039;-61
2024/02/08 06:41:52;;;;;;;32.20;21.87;;;6.10;99.90;;;;;;4197204;28;20090;-60
2024/02/08 06:46:18;;;;;;;42.80;26.07;;;6.10;99.90;;;;;;4210149;28;20537;-62
2024/02/08 06:48:42;;;;;;;36.57;21.30;;;6.20;99.90;;;;;;4208393;28;20085;-63
2024/02/08 07:37:36;;;;;;;13.27;6.90;;;7.80;99.90;;;;;;4208519;28;20553;-61
2024/02/08 07:39:46;;;;;;;14.67;6.60;;;8.00;99.90;;;;;;4193598;28;20439;-65
2024/02/08 07:41:56;;;;;;;12.45;5.55;;;8.10;99.90;;;;;;4196107;28;20024;-61
2024/02/08 07:43:57;;;;;;;8.68;5.22;;;8.20;99.90;;;;;;4197766;28;20028;-62
2024/02/08 07:46:04;;;;;;;9.20;4.77;;;8.40;99.90;;;;;;4199426;28;20085;-62
2024/02/08 07:48:08;;;;;;;10.17;5.13;;;8.60;99.90;;;;;;4201584;28;20033;-60
2024/02/08 07:50:09;;;;;;;14.40;7.20;;;8.70;99.90;;;;;;4194268;28;20118;-62
2024/02/08 07:52:20;;;;;;;10.40;5.63;;;8.90;99.90;;;;;;4195333;28;20074;-61
2024/02/08 07:54:21;;;;;;;9.38;4.53;;;9.00;99.90;;;;;;4210226;28;20427;-60
2024/02/08 07:58:27;;;;;;;11.27;5.40;;;9.30;99.90;;;;;;4214200;28;20032;-60
2024/02/08 08:02:35;;;;;;;8.37;4.70;;;9.50;99.90;;;;;;4208701;28;20074;-59
2024/02/08 08:04:51;;;;;;;12.97;4.43;;;9.60;99.90;;;;;;4203561;28;20032;-55
2024/02/08 08:06:52;;;;;;;9.00;3.93;;;9.70;99.90;;;;;;4213481;28;20077;-60
2024/02/08 08:09:18;;;;;;;6.30;3.67;;;9.80;99.90;;;;;;4209290;28;20460;-60
2024/02/08 08:11:19;;;;;;;14.03;4.40;;;9.90;99.90;;;;;;4213996;28;20048;-60
2024/02/08 08:13:50;;;;;;;11.10;4.83;;;10.00;99.90;;;;;;4203543;28;20511;-63
2024/02/08 08:16:35;;;;;;;8.47;4.10;;;10.10;99.90;;;;;;4204868;28;20566;-60
2024/02/08 08:18:23;;;;;;;21.20;4.90;;;10.10;99.90;;;;;;4211966;28;20032;-61
2024/02/08 08:23:00;;;;;;;9.63;4.50;;;10.20;99.90;;;;;;4197937;28;20161;-61
2024/02/08 08:27:26;;;;;;;12.85;4.00;;;10.30;99.90;;;;;;4212014;28;20032;-63
2024/02/08 08:29:27;;;;;;;9.43;3.50;;;10.30;99.90;;;;;;4211402;28;20039;-64
2024/02/08 08:33:59;;;;;;;9.70;4.82;;;10.40;99.90;;;;;;4189677;28;20542;-62
2024/02/08 08:36:05;;;;;;;9.80;3.50;;;10.40;99.90;;;;;;4195541;28;20078;-64
2024/02/08 08:40:20;;;;;;;13.33;4.20;;;10.40;99.90;;;;;;4212502;28;20085;-59
2024/02/08 08:42:23;;;;;;;18.77;4.00;;;10.50;99.90;;;;;;4211645;28;20069;-61
2024/02/08 08:44:30;;;;;;;10.97;4.07;;;10.50;99.90;;;;;;4210942;28;20032;-61
2024/02/08 08:46:32;;;;;;;8.43;3.53;;;10.50;99.90;;;;;;4213389;28;20476;-64
2024/02/08 08:48:35;;;;;;;8.80;4.00;;;10.50;99.90;;;;;;4211845;28;20561;-63
2024/02/08 08:50:36;;;;;;;8.70;2.73;;;10.50;99.90;;;;;;4212669;28;20048;-62
2024/02/08 08:52:47;;;;;;;15.87;4.33;;;10.50;99.90;;;;;;4196234;28;20094;-63
2024/02/08 08:54:56;;;;;;;10.73;4.70;;;10.60;99.90;;;;;;4196349;28;20074;-63
2024/02/08 08:56:58;;;;;;;13.32;4.90;;;10.60;99.90;;;;;;4204854;28;20509;-63
2024/02/08 08:58:59;;;;;;;15.50;7.10;;;10.60;99.90;;;;;;4212682;28;20040;-63
2024/02/08 09:01:17;;;;;;;16.30;6.20;;;10.70;99.90;;;;;;4198902;28;20119;-62
2024/02/08 09:03:28;;;;;;;8.70;3.97;;;10.70;99.90;;;;;;4211870;28;20036;-63
2024/02/08 09:05:32;;;;;;;9.40;3.00;;;10.80;99.90;;;;;;4200181;28;20082;-63
2024/02/08 09:07:37;;;;;;;3.60;2.27;;;10.80;99.90;;;;;;4210757;28;20419;-62
2024/02/08 09:09:55;;;;;;;3.97;2.13;;;10.80;99.90;;;;;;4211184;28;20108;-62
2024/02/08 09:11:59;;;;;;;4.80;1.97;;;10.90;99.90;;;;;;4212683;28;20132;-63
2024/02/08 09:14:09;;;;;;;3.83;2.57;;;10.90;99.90;;;;;;4211405;28;20036;-62
2024/02/08 09:19:13;;;;;;;24.37;9.97;;;11.00;99.90;;;;;;4210311;28;20040;-63
2024/02/08 09:20:47;;;;;;;33.27;13.03;;;11.00;99.90;;;;;;4208288;28;20051;-63
2024/02/08 09:22:55;;;;;;;16.13;4.03;;;11.10;99.90;;;;;;4210340;28;20121;-63
2024/02/08 09:24:57;;;;;;;9.87;2.93;;;11.20;99.90;;;;;;4212192;28;20109;-62
2024/02/08 09:27:15;;;;;;;24.33;9.63;;;11.20;99.90;;;;;;4210992;28;20438;-62
2024/02/08 09:29:26;;;;;;;10.90;4.20;;;11.30;99.90;;;;;;4211700;28;20489;-61
2024/02/08 09:31:38;;;;;;;57.57;20.67;;;11.30;99.90;;;;;;4211151;28;20074;-64
2024/02/08 09:34:00;;;;;;;20.30;4.87;;;11.30;99.90;;;;;;4210779;28;20089;-64
2024/02/08 09:36:03;;;;;;;75.03;25.83;;;11.40;99.90;;;;;;4210371;28;20084;-65
2024/02/08 09:38:04;;;;;;;47.33;13.93;;;11.50;99.90;;;;;;4211528;28;20054;-63
2024/02/08 09:40:18;;;;;;;26.40;9.77;;;11.50;99.90;;;;;;4203849;28;20082;-62
2024/02/08 09:42:19;;;;;;;12.03;4.57;;;11.50;99.90;;;;;;4200614;28;20039;-63
2024/02/08 09:44:26;;;;;;;7.23;3.00;;;11.50;99.90;;;;;;4207908;28;20046;-61
2024/02/08 09:46:49;;;;;;;5.97;2.47;;;11.60;99.90;;;;;;4202081;28;20089;-61
2024/02/08 09:48:51;;;;;;;11.33;3.60;;;11.60;99.90;;;;;;4210672;28;20044;-62
2024/02/08 09:50:59;;;;;;;4.83;2.37;;;11.60;99.90;;;;;;4204170;28;20066;-61
2024/02/08 09:53:18;;;;;;;18.23;5.80;;;11.70;99.90;;;;;;4202586;28;20069;-61
2024/02/08 09:55:19;;;;;;;8.03;2.80;;;11.70;99.90;;;;;;4208726;28;20033;-62
2024/02/08 09:57:21;;;;;;;8.83;3.33;;;11.70;99.90;;;;;;4200299;28;20486;-61
2024/02/08 10:01:43;;;;;;;5.90;1.90;;;11.70;99.90;;;;;;4199394;28;20032;-62
2024/02/08 10:03:46;;;;;;;8.47;2.20;;;11.70;99.90;;;;;;4206252;28;20086;-62
2024/02/08 10:05:51;;;;;;;5.80;2.97;;;11.70;99.90;;;;;;4202440;28;20567;-62
2024/02/08 10:08:08;;;;;;;10.17;2.07;;;11.70;99.90;;;;;;4207550;28;20036;-61
2024/02/08 10:10:17;;;;;;;6.50;2.40;;;11.80;99.90;;;;;;4208072;28;20085;-62
2024/02/08 10:12:20;;;;;;;3.77;1.60;;;11.90;99.90;;;;;;4210821;28;20093;-62
2024/02/08 10:14:32;;;;;;;3.97;2.00;;;11.90;99.90;;;;;;4208867;28;20086;-63
2024/02/08 10:16:43;;;;;;;7.53;2.17;;;11.90;99.90;;;;;;4211372;28;20053;-62
2024/02/08 10:18:57;;;;;;;21.70;8.38;;;11.90;99.90;;;;;;4207260;28;20040;-63
2024/02/08 10:21:12;;;;;;;6.40;1.97;;;12.00;99.90;;;;;;4205375;28;20483;-62
2024/02/08 10:23:33;;;;;;;14.13;5.50;;;12.00;99.90;;;;;;4198806;28;20040;-61
2024/02/08 10:27:56;;;;;;;11.27;2.67;;;12.10;99.90;;;;;;4204481;28;20066;-63
2024/02/08 10:30:05;;;;;;;16.03;5.43;;;12.20;99.90;;;;;;4210609;28;20052;-62
2024/02/08 10:32:06;;;;;;;9.40;2.33;;;12.20;99.90;;;;;;4197357;28;20033;-64
2024/02/08 10:34:23;;;;;;;7.87;2.90;;;12.20;99.90;;;;;;4194590;28;20040;-62
2024/02/08 10:36:31;;;;;;;11.63;2.07;;;12.20;99.90;;;;;;4193500;28;20094;-63
2024/02/08 10:38:57;;;;;;;5.60;1.90;;;12.20;99.90;;;;;;4198295;28;20089;-62
2024/02/08 10:40:58;;;;;;;28.63;9.77;;;12.20;99.90;;;;;;4199581;28;20036;-65
2024/02/08 10:43:02;;;;;;;7.47;2.60;;;12.20;99.90;;;;;;4205663;28;20112;-63
2024/02/08 10:45:05;;;;;;;7.93;2.30;;;12.30;99.90;;;;;;4209917;28;20065;-63
2024/02/08 10:47:09;;;;;;;8.43;2.10;;;12.30;99.90;;;;;;4210832;28;20081;-63
2024/02/08 10:49:11;;;;;;;11.37;3.30;;;12.30;99.90;;;;;;4209808;28;20733;-64
2024/02/08 10:51:25;;;;;;;6.47;2.20;;;12.40;99.90;;;;;;4207684;28;20089;-64
2024/02/08 10:53:43;;;;;;;5.90;2.33;;;12.40;99.90;;;;;;4193414;28;20081;-63
2024/02/08 10:55:56;;;;;;;3.70;2.03;;;12.50;99.90;;;;;;4197212;28;20070;-64
2024/02/08 10:58:55;;;;;;;4.17;2.10;;;12.50;99.90;;;;;;4201265;28;20085;-66
2024/02/08 11:02:54;;;;;;;5.63;2.37;;;12.50;99.90;;;;;;4198939;28;20125;-66
2024/02/08 11:05:12;;;;;;;5.73;2.27;;;12.50;99.90;;;;;;4194031;28;20090;-63
2024/02/08 11:07:18;;;;;;;4.27;2.07;;;12.50;99.90;;;;;;4202303;28;20085;-64
2024/02/08 11:09:19;;;;;;;6.90;2.67;;;12.50;99.90;;;;;;4208885;28;20052;-64
2024/02/08 11:11:20;;;;;;;5.50;2.77;;;12.40;99.90;;;;;;4207092;28;20095;-63
2024/02/08 11:13:29;;;;;;;4.57;2.13;;;12.40;99.90;;;;;;4211409;28;20048;-63
2024/02/08 11:15:31;;;;;;;4.80;2.00;;;12.30;99.90;;;;;;4204369;28;20083;-62
2024/02/08 11:17:35;;;;;;;7.50;2.40;;;12.30;99.90;;;;;;4194359;28;20029;-63
2024/02/08 11:19:39;;;;;;;6.73;2.13;;;12.40;99.90;;;;;;4192948;28;20074;-62
2024/02/08 11:21:43;;;;;;;13.70;3.20;;;12.50;99.90;;;;;;4193436;28;20439;-58
2024/02/08 11:23:57;;;;;;;5.57;2.53;;;12.50;99.90;;;;;;4191211;28;20082;-60
2024/02/08 11:26:08;;;;;;;8.93;2.67;;;12.60;99.90;;;;;;4201898;28;20450;-63
2024/02/08 11:28:15;;;;;;;6.10;2.70;;;12.60;99.90;;;;;;4192944;28;20085;-65
2024/02/08 11:30:19;;;;;;;8.33;3.10;;;12.70;99.90;;;;;;4194296;28;20435;-60
2024/02/08 11:32:23;;;;;;;9.60;2.80;;;12.70;99.90;;;;;;4196499;28;20052;-60
2024/02/08 11:34:24;;;;;;;5.33;2.37;;;12.70;99.90;;;;;;4198517;28;20386;-65
2024/02/08 11:36:35;;;;;;;9.43;2.27;;;12.70;99.90;;;;;;4201575;28;20415;-63
2024/02/08 11:38:36;;;;;;;4.88;2.42;;;12.70;99.90;;;;;;4200853;28;20073;-62
2024/02/08 11:40:37;;;;;;;6.20;2.47;;;12.90;99.90;;;;;;4213050;28;20094;-62
2024/02/08 11:42:42;;;;;;;6.10;2.50;;;12.90;99.90;;;;;;4209515;28;20033;-63
2024/02/08 11:44:46;;;;;;;8.03;2.53;;;13.00;99.90;;;;;;4196384;28;20021;-62
2024/02/08 11:46:51;;;;;;;5.83;2.30;;;13.10;99.90;;;;;;4202555;28;20037;-63
2024/02/08 11:48:53;;;;;;;3.73;2.07;;;13.30;99.90;;;;;;4212802;28;20461;-64
2024/02/08 11:51:10;;;;;;;3.77;1.90;;;13.40;99.90;;;;;;4203916;28;20516;-64
2024/02/08 11:53:12;;;;;;;5.87;2.00;;;13.40;99.90;;;;;;4209445;28;20032;-62
2024/02/08 11:55:14;;;;;;;3.47;2.10;;;13.40;99.90;;;;;;4212709;28;20040;-64
2024/02/08 11:57:17;;;;;;;5.97;1.67;;;13.40;99.90;;;;;;4212041;28;20028;-61
2024/02/08 11:59:20;;;;;;;2.23;1.70;;;13.40;99.90;;;;;;4213370;28;20426;-61
2024/02/08 12:01:26;;;;;;;6.63;2.60;;;13.50;99.90;;;;;;4211564;28;20462;-61
2024/02/08 12:03:28;;;;;;;2.90;1.53;;;13.50;99.90;;;;;;4197494;28;20078;-61
2024/02/08 12:05:30;;;;;;;4.77;1.30;;;13.40;99.90;;;;;;4197303;28;20032;-62
2024/02/08 12:07:31;;;;;;;2.17;1.33;;;13.30;99.90;;;;;;4212925;28;20081;-63
2024/02/08 12:09:33;;;;;;;1.63;1.10;;;13.20;99.90;;;;;;4212798;28;20047;-63
2024/02/08 12:11:34;;;;;;;4.13;1.37;;;13.10;99.90;;;;;;4212391;28;20040;-62
2024/02/08 12:13:39;;;;;;;2.17;1.20;;;13.00;99.90;;;;;;4212474;28;20028;-63
2024/02/08 12:15:44;;;;;;;2.27;1.30;;;13.00;99.90;;;;;;4209683;28;20097;-61
2024/02/08 12:17:48;;;;;;;1.87;1.40;;;12.90;99.90;;;;;;4196811;28;20070;-63
2024/02/08 12:19:59;;;;;;;2.87;1.03;;;12.90;99.90;;;;;;4200305;28;20449;-61
2024/02/08 12:22:04;;;;;;;5.97;1.63;;;12.90;99.90;;;;;;4213277;28;20044;-62
2024/02/08 12:24:05;;;;;;;2.00;1.20;;;12.80;99.90;;;;;;4208529;28;20070;-64
2024/02/08 12:26:08;;;;;;;3.70;1.37;;;12.90;99.90;;;;;;4213388;28;20032;-60
2024/02/08 12:28:10;;;;;;;4.20;1.30;;;12.80;99.90;;;;;;4211899;28;20031;-63
2024/02/08 12:30:12;;;;;;;1.67;0.90;;;12.90;99.90;;;;;;4213097;28;20438;-57
2024/02/08 12:32:16;;;;;;;4.20;1.47;;;12.90;99.90;;;;;;4204769;28;20414;-62
2024/02/08 12:34:24;;;;;;;3.50;2.50;;;12.90;99.90;;;;;;4204128;28;20101;-64
2024/02/08 12:36:30;;;;;;;3.40;2.30;;;12.90;99.90;;;;;;4211764;28;20081;-65
2024/02/08 12:38:31;;;;;;;3.37;1.50;;;12.90;99.90;;;;;;4209621;28;20087;-64
2024/02/08 12:40:33;;;;;;;3.90;1.77;;;13.00;99.90;;;;;;4210175;28;20032;-65
2024/02/08 12:42:34;;;;;;;4.20;1.90;;;13.00;99.90;;;;;;4211577;28;20081;-64
2024/02/08 12:44:35;;;;;;;3.77;2.23;;;13.00;99.90;;;;;;4211621;28;20093;-62